Terminal Aerodrome Forecast
Issued by NWS Jackson, KY

Home | Current Version | Previous Version | Text Only | Print | Product List | Glossary On
Versions: 1 2 3 4 5 6 7 8 9 10 11 12 13 14 15 16 17
923
FTUS43 KJKL 241738
TAFLOZ
TAF
KLOZ 241738Z 2418/2518 20012G21KT P6SM FEW045 SCT250
     FM250200 21009G15KT P6SM VCTS FEW040CB BKN060 BKN100
     FM250500 22011KT 5SM -SHRA VCTS OVC040CB
     FM250800 26011KT 3SM SHRA OVC025
     FM251100 27009G17KT P6SM -SHRA OVC015
     FM251500 27014G23KT P6SM BKN020=

USA.gov is the U.S. government's official web portal to all federal, state and local government web resources and services.